Time;durP1;ratioP1;P1;durP2;ratioP2;P2;SDS_P1;SDS_P2;PMS_P1;PMS_P2;Temp;Humidity;BMP_temperature;BMP_pressure;BME280_temperature;BME280_humidity;BME280_pressure;Samples;Min_cycle;Max_cycle;Signal;HPM_P1;HPM_P2
2023/07/27 06:00:50;;;;;;;0.82;0.47;;;19.10;92.40;;;;;;5186516;23;20051;-88
2023/07/27 06:03:18;;;;;;;3.80;0.93;;;19.70;90.50;;;;;;4973112;28;20377;-93
2023/07/27 06:05:44;;;;;;;1.95;0.60;;;20.20;85.30;;;;;;4973057;28;20049;-92
2023/07/27 06:08:10;;;;;;;4.25;0.70;;;21.20;81.40;;;;;;4974073;28;20400;-90
2023/07/27 06:10:35;;;;;;;4.72;0.68;;;22.40;72.60;;;;;;4974188;28;20023;-88
2023/07/27 06:13:01;;;;;;;2.58;0.63;;;23.10;68.90;;;;;;4973655;28;20031;-87
2023/07/27 06:15:27;;;;;;;7.78;0.88;;;24.00;64.00;;;;;;4973542;28;20619;-85
2023/07/27 06:17:52;;;;;;;1.23;0.75;;;25.00;58.30;;;;;;4973277;28;20414;-82
2023/07/27 06:20:18;;;;;;;2.60;0.82;;;26.10;53.70;;;;;;4971930;28;20407;-84
2023/07/27 06:22:43;;;;;;;1.92;0.68;;;27.00;49.40;;;;;;4972033;28;20038;-82
2023/07/27 06:25:09;;;;;;;1.67;1.00;;;27.80;46.00;;;;;;4972520;28;20038;-84
2023/07/27 06:27:35;;;;;;;2.80;0.80;;;28.20;44.90;;;;;;4972597;28;20023;-84
2023/07/27 06:30:00;;;;;;;3.83;0.77;;;28.70;42.20;;;;;;4971541;28;20026;-84
2023/07/27 06:32:26;;;;;;;3.20;0.77;;;29.20;39.90;;;;;;4970782;28;20039;-83
2023/07/27 06:34:52;;;;;;;0.95;0.73;;;29.80;38.50;;;;;;4972480;28;20037;-84
2023/07/27 06:37:18;;;;;;;7.07;0.85;;;30.00;38.00;;;;;;4972656;28;20496;-84
2023/07/27 06:39:44;;;;;;;1.75;0.80;;;29.90;36.90;;;;;;4972433;28;20023;-83
2023/07/27 06:42:10;;;;;;;6.63;0.60;;;29.80;37.40;;;;;;4972223;28;20587;-83
2023/07/27 06:44:36;;;;;;;3.85;0.95;;;30.00;36.20;;;;;;4970894;28;20015;-83
2023/07/27 06:47:02;;;;;;;1.85;0.63;;;29.90;34.80;;;;;;4972433;28;20374;-83
2023/07/27 06:49:27;;;;;;;3.05;1.00;;;30.50;34.80;;;;;;4972419;28;20023;-83
2023/07/27 06:51:53;;;;;;;1.83;0.55;;;30.60;34.50;;;;;;4970629;28;20506;-83
2023/07/27 06:54:18;;;;;;;2.70;0.60;;;30.90;34.20;;;;;;4972051;28;20566;-83
2023/07/27 06:56:44;;;;;;;4.88;0.82;;;31.00;33.40;;;;;;4970516;28;20090;-83
2023/07/27 06:59:10;;;;;;;1.48;0.50;;;30.80;33.90;;;;;;4970721;28;20133;-82
2023/07/27 07:01:35;;;;;;;1.83;0.65;;;30.70;35.00;;;;;;4972263;28;20035;-84
2023/07/27 07:04:02;;;;;;;3.67;0.93;;;30.60;34.60;;;;;;4971762;28;20538;-84
2023/07/27 07:06:28;;;;;;;2.08;0.77;;;30.60;33.30;;;;;;4970453;28;20035;-83
2023/07/27 07:08:53;;;;;;;2.40;0.80;;;30.40;34.70;;;;;;4971939;28;20030;-83
2023/07/27 07:11:19;;;;;;;1.48;0.50;;;30.70;34.50;;;;;;4971833;28;20035;-83
2023/07/27 07:13:44;;;;;;;1.83;0.70;;;30.90;34.10;;;;;;4970321;28;20392;-84
2023/07/27 07:16:11;;;;;;;1.77;0.65;;;30.90;33.00;;;;;;4969930;28;20050;-84
2023/07/27 07:18:36;;;;;;;1.65;0.60;;;30.50;32.30;;;;;;4971596;28;20019;-83
2023/07/27 07:21:02;;;;;;;1.35;0.63;;;30.50;33.60;;;;;;4971890;28;20499;-84
2023/07/27 07:23:27;;;;;;;3.15;0.68;;;30.30;32.60;;;;;;4971931;28;20022;-84
2023/07/27 07:25:53;;;;;;;6.32;0.82;;;30.40;32.00;;;;;;4972039;28;20037;-83
2023/07/27 07:28:19;;;;;;;3.33;0.70;;;30.30;32.90;;;;;;4971868;28;20027;-84
2023/07/27 07:30:44;;;;;;;2.92;0.80;;;30.30;33.90;;;;;;4970433;28;20113;-84
2023/07/27 07:33:10;;;;;;;1.58;0.60;;;30.40;34.40;;;;;;4971424;28;20126;-83
2023/07/27 07:35:38;;;;;;;4.53;0.63;;;30.70;33.30;;;;;;4970402;28;20069;-83
2023/07/27 07:38:07;;;;;;;0.88;0.43;;;30.60;33.60;;;;;;4970457;28;20487;-83
2023/07/27 07:40:33;;;;;;;3.28;0.50;;;30.40;33.60;;;;;;4971450;28;20070;-83
2023/07/27 07:42:59;;;;;;;2.30;0.57;;;30.60;33.30;;;;;;4969874;28;20113;-83
2023/07/27 07:45:25;;;;;;;1.98;0.60;;;30.30;34.20;;;;;;4971475;28;20034;-83
2023/07/27 07:47:51;;;;;;;5.93;0.70;;;30.20;34.10;;;;;;4970568;28;20106;-84
2023/07/27 07:50:17;;;;;;;5.55;0.70;;;30.20;33.40;;;;;;4970370;28;20050;-84
2023/07/27 07:52:42;;;;;;;1.10;0.63;;;30.40;33.10;;;;;;4970339;28;20504;-83
2023/07/27 07:55:09;;;;;;;3.38;0.65;;;30.40;33.20;;;;;;4971513;28;20043;-84
2023/07/27 07:57:34;;;;;;;4.45;0.43;;;30.40;33.20;;;;;;4970198;28;20491;-84
2023/07/27 08:00:00;;;;;;;2.33;0.80;;;30.70;32.30;;;;;;4971232;28;20054;-84
2023/07/27 08:02:26;;;;;;;7.00;0.95;;;30.50;33.40;;;;;;4971082;28;20488;-84
2023/07/27 08:04:52;;;;;;;3.40;0.60;;;30.60;32.40;;;;;;4971486;28;20022;-84
2023/07/27 08:07:17;;;;;;;5.15;1.05;;;30.20;32.70;;;;;;4970294;28;20125;-84
2023/07/27 08:09:43;;;;;;;4.65;0.65;;;30.40;31.60;;;;;;4974782;28;20417;-84
2023/07/27 08:12:09;;;;;;;2.22;0.50;;;30.30;31.60;;;;;;4974805;28;20412;-84
2023/07/27 08:14:34;;;;;;;1.48;0.60;;;30.00;32.30;;;;;;4975137;28;20026;-84
2023/07/27 08:17:00;;;;;;;2.10;0.73;;;30.20;31.90;;;;;;4974612;28;20039;-84
2023/07/27 08:19:26;;;;;;;1.38;0.50;;;30.10;31.20;;;;;;4972796;28;20031;-84
2023/07/27 08:21:51;;;;;;;1.23;0.50;;;30.20;32.30;;;;;;4973158;28;20027;-82
2023/07/27 08:24:17;;;;;;;4.10;0.85;;;30.50;31.40;;;;;;4974746;28;20455;-83
2023/07/27 08:26:43;;;;;;;4.88;0.63;;;30.30;31.60;;;;;;4973392;28;20500;-82
2023/07/27 08:29:08;;;;;;;1.73;0.60;;;30.30;30.90;;;;;;4974445;28;20085;-83
2023/07/27 08:31:34;;;;;;;2.28;0.70;;;30.50;30.70;;;;;;4973644;28;20070;-84
2023/07/27 08:33:59;;;;;;;1.13;0.50;;;30.50;31.50;;;;;;4973066;28;20030;-83
2023/07/27 08:36:25;;;;;;;3.05;0.93;;;30.70;31.00;;;;;;4974459;28;20049;-83
2023/07/27 08:38:51;;;;;;;2.33;0.65;;;30.90;31.40;;;;;;4974596;28;20061;-83
2023/07/27 08:41:16;;;;;;;1.05;0.63;;;31.20;29.90;;;;;;4974308;28;20031;-83
2023/07/27 08:43:42;;;;;;;2.15;0.60;;;31.00;30.60;;;;;;4974338;28;20027;-82
2023/07/27 08:46:08;;;;;;;2.67;0.60;;;31.00;31.10;;;;;;4974630;28;20031;-83
2023/07/27 08:48:34;;;;;;;1.48;0.65;;;31.30;30.00;;;;;;4974357;28;20019;-83
2023/07/27 08:51:00;;;;;;;2.35;0.40;;;31.50;30.00;;;;;;4973074;28;20330;-84
2023/07/27 08:53:26;;;;;;;1.85;0.43;;;31.40;29.60;;;;;;4973726;28;20110;-83
2023/07/27 08:55:52;;;;;;;1.65;0.50;;;31.50;29.80;;;;;;4974159;28;20570;-83
2023/07/27 08:58:18;;;;;;;4.03;0.95;;;31.50;30.00;;;;;;4974094;28;20038;-83
2023/07/27 09:00:44;;;;;;;1.90;0.60;;;31.50;29.70;;;;;;4974283;28;20142;-82
2023/07/27 09:03:09;;;;;;;1.20;0.50;;;31.40;29.20;;;;;;4973964;28;20035;-82
2023/07/27 09:05:43;;;;;;;3.17;0.50;;;31.50;28.80;;;;;;4973680;28;20384;-83
2023/07/27 09:08:14;;;;;;;3.70;0.70;;;31.70;29.10;;;;;;4974030;28;20492;-83
2023/07/27 09:10:41;;;;;;;3.20;0.40;;;31.60;29.10;;;;;;4972550;28;20411;-82
2023/07/27 09:13:07;;;;;;;1.95;0.65;;;31.80;28.50;;;;;;4973854;28;20058;-83
2023/07/27 09:15:34;;;;;;;2.67;0.88;;;31.90;28.40;;;;;;4972524;28;20050;-83
2023/07/27 09:18:02;;;;;;;4.00;0.82;;;31.90;28.60;;;;;;4972574;28;20019;-83
2023/07/27 09:20:29;;;;;;;2.97;0.50;;;31.90;28.60;;;;;;4973666;28;20033;-83
2023/07/27 09:22:59;;;;;;;5.22;0.60;;;32.00;28.90;;;;;;4973694;28;20034;-82
2023/07/27 09:25:24;;;;;;;0.73;0.38;;;32.20;27.70;;;;;;4973519;28;20037;-83
2023/07/27 09:27:55;;;;;;;1.70;0.43;;;32.10;26.70;;;;;;4972395;28;20105;-83
2023/07/27 09:30:23;;;;;;;1.52;0.60;;;31.60;29.20;;;;;;4973493;28;20042;-83
2023/07/27 09:32:49;;;;;;;4.75;0.70;;;31.60;28.90;;;;;;4973700;28;20412;-84
2023/07/27 09:35:16;;;;;;;1.55;0.73;;;31.60;29.10;;;;;;4972864;28;20484;-83
2023/07/27 09:37:51;;;;;;;1.27;0.57;;;31.90;29.10;;;;;;4973994;28;20031;-84
2023/07/27 09:40:24;;;;;;;1.85;0.50;;;31.90;28.90;;;;;;4972674;28;20409;-83
2023/07/27 09:42:51;;;;;;;3.90;0.50;;;31.90;27.40;;;;;;4973571;28;20026;-84
2023/07/27 09:45:16;;;;;;;1.40;0.50;;;31.50;28.30;;;;;;4972323;28;20037;-83
2023/07/27 09:47:42;;;;;;;0.82;0.50;;;31.30;28.10;;;;;;4973551;28;20027;-81
2023/07/27 09:50:09;;;;;;;1.52;0.50;;;31.40;29.20;;;;;;4973499;28;20085;-83
2023/07/27 09:52:37;;;;;;;0.85;0.50;;;31.80;29.70;;;;;;4971986;28;20031;-83
2023/07/27 09:55:03;;;;;;;1.23;0.43;;;32.10;29.50;;;;;;4973139;28;20110;-82
2023/07/27 09:57:29;;;;;;;1.17;0.50;;;32.00;28.70;;;;;;4972011;28;20125;-83
2023/07/27 09:59:55;;;;;;;2.90;0.70;;;32.00;28.40;;;;;;4973085;28;20039;-83
2023/07/27 10:02:22;;;;;;;1.25;0.50;;;31.70;28.00;;;;;;4972047;28;20027;-83
2023/07/27 10:04:51;;;;;;;1.90;0.50;;;31.70;28.40;;;;;;4971660;28;20396;-84
2023/07/27 10:07:22;;;;;;;3.65;0.60;;;31.60;28.10;;;;;;4973154;28;20115;-84
2023/07/27 10:09:48;;;;;;;3.90;0.60;;;31.30;28.90;;;;;;4972727;28;20035;-84
2023/07/27 10:12:29;;;;;;;2.00;0.60;;;31.20;29.10;;;;;;4973001;28;20500;-85
2023/07/27 10:15:18;;;;;;;4.15;0.50;;;31.00;29.50;;;;;;4971985;28;20027;-86
2023/07/27 10:17:50;;;;;;;1.85;0.50;;;30.30;30.20;;;;;;4973475;28;20023;-86
2023/07/27 10:20:27;;;;;;;1.25;0.70;;;29.50;30.60;;;;;;4973606;28;20051;-87
2023/07/27 10:23:10;;;;;;;2.17;0.45;;;28.10;30.20;;;;;;4972325;28;20022;-91
2023/07/27 10:25:54;;;;;;;2.53;0.73;;;27.70;33.70;;;;;;4973563;28;20033;-91
2023/07/27 10:28:37;;;;;;;4.85;1.58;;;27.50;33.00;;;;;;4972112;28;20089;-91
2023/07/27 10:31:22;;;;;;;1.00;0.50;;;27.00;36.10;;;;;;4972139;28;20496;-90
2023/07/27 10:33:56;;;;;;;2.45;0.52;;;27.00;36.60;;;;;;4973408;28;20767;-90
2023/07/27 10:36:25;;;;;;;0.68;0.40;;;26.90;33.30;;;;;;4973362;28;20038;-90
2023/07/27 10:38:54;;;;;;;1.70;0.50;;;26.70;32.50;;;;;;4973685;28;20033;-89
2023/07/27 10:41:22;;;;;;;1.60;0.50;;;26.60;34.00;;;;;;4973802;28;20026;-91
2023/07/27 10:44:06;;;;;;;1.88;0.50;;;26.60;35.40;;;;;;4972036;28;20027;-91
2023/07/27 10:46:35;;;;;;;3.35;0.47;;;26.70;37.20;;;;;;4972054;28;20026;-90
2023/07/27 10:49:11;;;;;;;0.80;0.50;;;26.80;37.30;;;;;;4972368;28;20041;-93
2023/07/27 10:51:42;;;;;;;1.67;0.60;;;26.90;35.70;;;;;;4973083;28;20041;-91
2023/07/27 10:54:09;;;;;;;3.33;0.55;;;26.80;37.00;;;;;;4971977;28;20026;-89
2023/07/27 10:56:35;;;;;;;0.90;0.57;;;26.70;38.30;;;;;;4972227;28;20173;-91
2023/07/27 10:59:01;;;;;;;2.42;0.63;;;26.80;38.60;;;;;;4971774;28;20106;-92
2023/07/27 11:01:29;;;;;;;1.20;0.50;;;26.50;38.40;;;;;;4971869;28;20053;-91
2023/07/27 11:03:56;;;;;;;2.22;0.60;;;26.30;38.60;;;;;;4973063;28;20495;-90
2023/07/27 11:06:22;;;;;;;2.35;0.70;;;26.00;38.40;;;;;;4971665;28;20034;-92
2023/07/27 11:08:47;;;;;;;1.23;0.50;;;25.60;35.70;;;;;;4971703;28;20400;-90
2023/07/27 11:11:16;;;;;;;5.97;0.52;;;25.30;36.70;;;;;;4972854;28;20039;-91
2023/07/27 11:13:42;;;;;;;1.05;0.50;;;25.20;37.30;;;;;;4972096;28;20102;-93
2023/07/27 11:16:07;;;;;;;2.35;0.40;;;24.90;38.80;;;;;;4972827;28;20121;-90
2023/07/27 11:18:34;;;;;;;0.88;0.40;;;25.10;40.00;;;;;;4971715;28;20023;-90
2023/07/27 11:21:02;;;;;;;1.00;0.60;;;25.20;40.10;;;;;;4971693;28;20031;-91
2023/07/27 11:23:28;;;;;;;0.98;0.52;;;25.40;40.00;;;;;;4972966;28;20015;-90
2023/07/27 11:25:56;;;;;;;1.27;0.60;;;25.40;39.20;;;;;;4972681;28;20023;-89
2023/07/27 11:28:22;;;;;;;3.33;0.50;;;25.50;39.30;;;;;;4972686;28;20030;-91
2023/07/27 11:30:53;;;;;;;1.17;0.65;;;25.50;39.50;;;;;;4972621;28;20026;-90
2023/07/27 11:33:26;;;;;;;3.78;0.50;;;25.50;40.50;;;;;;4972725;28;20050;-93
2023/07/27 11:35:52;;;;;;;1.33;0.60;;;25.50;42.00;;;;;;4971427;28;20467;-92
2023/07/27 11:38:18;;;;;;;0.82;0.50;;;25.50;41.00;;;;;;4971810;28;20499;-93
2023/07/27 11:40:46;;;;;;;1.30;0.50;;;25.30;41.00;;;;;;4971777;28;20227;-93
2023/07/27 11:43:12;;;;;;;1.40;0.70;;;25.20;40.90;;;;;;4972869;28;20039;-92
2023/07/27 11:45:38;;;;;;;3.60;0.68;;;24.90;40.20;;;;;;4977360;28;20057;-93
2023/07/27 11:48:04;;;;;;;1.23;0.60;;;24.90;40.80;;;;;;4977290;28;20118;-92
2023/07/27 11:50:30;;;;;;;1.23;0.50;;;24.80;40.70;;;;;;4976824;28;20062;-91
2023/07/27 11:53:01;;;;;;;2.72;0.57;;;24.70;40.80;;;;;;4975612;28;20066;-91
2023/07/27 11:55:32;;;;;;;1.17;0.50;;;24.60;41.70;;;;;;4976372;28;20041;-89
2023/07/27 11:57:58;;;;;;;1.30;0.60;;;24.80;41.60;;;;;;4976429;28;20022;-92
2023/07/27 12:00:24;;;;;;;1.35;0.45;;;25.20;40.90;;;;;;4975946;28;20152;-89
2023/07/27 12:02:50;;;;;;;0.90;0.60;;;25.30;39.10;;;;;;4975245;28;20035;-92
2023/07/27 12:05:21;;;;;;;1.13;0.40;;;25.30;39.20;;;;;;4975000;28;20027;-92
2023/07/27 12:07:47;;;;;;;2.15;0.65;;;25.20;40.00;;;;;;4974208;28;20066;-92
2023/07/27 12:10:16;;;;;;;0.93;0.50;;;24.90;39.20;;;;;;4976317;28;20582;-92
2023/07/27 12:13:07;;;;;;;1.85;0.63;;;24.70;39.40;;;;;;4975887;28;20500;-90
2023/07/27 12:15:35;;;;;;;2.58;0.50;;;24.60;40.30;;;;;;4975945;28;20392;-90
2023/07/27 12:18:03;;;;;;;7.25;0.95;;;24.60;39.20;;;;;;4974730;28;20566;-91
2023/07/27 12:20:31;;;;;;;1.27;0.40;;;24.60;39.30;;;;;;4974895;28;20051;-91
2023/07/27 12:22:57;;;;;;;0.98;0.47;;;24.50;39.00;;;;;;4974633;28;20105;-92
2023/07/27 12:25:26;;;;;;;2.15;0.88;;;24.60;40.30;;;;;;4974781;28;20039;-92
2023/07/27 12:27:52;;;;;;;2.80;0.60;;;24.90;40.60;;;;;;4975730;28;20077;-93
2023/07/27 12:30:19;;;;;;;1.55;0.47;;;25.20;40.30;;;;;;4975565;28;20447;-91
2023/07/27 12:32:45;;;;;;;1.85;0.52;;;25.30;40.20;;;;;;4974686;28;20157;-91
2023/07/27 12:35:11;;;;;;;2.67;0.55;;;25.30;39.40;;;;;;4974378;28;20129;-92
2023/07/27 12:37:36;;;;;;;1.90;0.55;;;25.10;38.90;;;;;;4974636;28;20162;-91
2023/07/27 12:40:03;;;;;;;1.75;0.65;;;25.00;39.80;;;;;;4975951;28;20089;-91
2023/07/27 12:42:29;;;;;;;0.73;0.43;;;24.90;38.70;;;;;;4975615;28;20106;-91
2023/07/27 12:44:56;;;;;;;1.80;0.47;;;24.80;39.40;;;;;;4975364;28;20110;-92
2023/07/27 12:47:23;;;;;;;0.70;0.40;;;24.80;39.20;;;;;;4974297;28;20241;-91
2023/07/27 12:49:48;;;;;;;1.67;0.50;;;24.90;39.40;;;;;;4974322;28;20030;-89
2023/07/27 12:52:14;;;;;;;0.75;0.60;;;25.20;40.00;;;;;;4975129;28;20033;-90
2023/07/27 12:54:39;;;;;;;2.15;0.60;;;25.30;39.50;;;;;;4973771;28;20029;-92
2023/07/27 12:57:06;;;;;;;2.22;0.80;;;25.20;39.00;;;;;;4974341;28;20782;-91
2023/07/27 12:59:31;;;;;;;0.88;0.40;;;25.20;39.00;;;;;;4975064;28;20042;-91
2023/07/27 13:01:57;;;;;;;1.85;0.50;;;25.30;38.30;;;;;;4975625;28;20030;-90
2023/07/27 13:04:23;;;;;;;1.55;0.50;;;25.60;38.10;;;;;;4975235;28;20114;-90
2023/07/27 13:06:48;;;;;;;4.22;0.68;;;25.80;39.10;;;;;;4975104;28;20031;-92
2023/07/27 13:09:14;;;;;;;1.50;0.45;;;26.00;39.00;;;;;;4973851;28;20077;-89
2023/07/27 13:11:40;;;;;;;3.97;0.70;;;25.90;38.40;;;;;;4973848;28;20562;-91
2023/07/27 13:14:05;;;;;;;1.45;0.60;;;25.80;38.60;;;;;;4974755;28;20106;-92
2023/07/27 13:16:35;;;;;;;0.40;0.40;;;25.60;39.00;;;;;;4974987;28;20400;-90
2023/07/27 13:19:01;;;;;;;2.08;0.70;;;25.50;39.60;;;;;;4975018;28;20046;-90
2023/07/27 13:21:27;;;;;;;1.00;0.43;;;25.40;39.20;;;;;;4974689;28;20062;-92
2023/07/27 13:23:52;;;;;;;1.35;0.60;;;25.50;38.20;;;;;;4973720;28;20058;-94
2023/07/27 13:26:18;;;;;;;1.42;0.60;;;25.50;38.80;;;;;;4974632;28;20030;-91
2023/07/27 13:28:44;;;;;;;1.40;0.47;;;25.60;39.30;;;;;;4974433;28;20089;-92
2023/07/27 13:31:14;;;;;;;1.25;0.55;;;25.90;39.40;;;;;;4973463;28;20064;-91
2023/07/27 13:33:39;;;;;;;5.93;0.50;;;26.00;39.20;;;;;;4973404;28;20022;-92
2023/07/27 13:36:05;;;;;;;0.90;0.50;;;26.20;39.30;;;;;;4974719;28;20392;-92
2023/07/27 13:38:31;;;;;;;1.77;0.68;;;26.10;38.80;;;;;;4973354;28;20308;-92
2023/07/27 13:40:57;;;;;;;1.98;0.60;;;26.10;37.50;;;;;;4973743;28;20471;-92
2023/07/27 13:43:22;;;;;;;5.45;0.95;;;25.70;37.60;;;;;;4973121;28;20050;-92
2023/07/27 13:45:48;;;;;;;1.42;0.60;;;25.40;37.90;;;;;;4974152;28;20042;-91
2023/07/27 13:48:13;;;;;;;2.60;0.50;;;25.10;39.00;;;;;;4973050;28;20403;-91
2023/07/27 13:50:39;;;;;;;1.98;0.50;;;24.80;39.50;;;;;;4974168;28;20031;-93
2023/07/27 13:53:05;;;;;;;1.63;0.55;;;24.80;40.30;;;;;;4974107;28;20026;-93
2023/07/27 13:55:30;;;;;;;4.07;0.80;;;24.90;39.60;;;;;;4974674;28;20636;-90
2023/07/27 13:57:56;;;;;;;0.70;0.40;;;25.10;39.10;;;;;;4975360;28;20035;-89
2023/07/27 14:00:22;;;;;;;2.92;0.70;;;25.40;38.80;;;;;;4974174;28;20118;-89
2023/07/27 14:02:47;;;;;;;1.65;0.60;;;25.60;38.70;;;;;;4974292;28;20041;-90
2023/07/27 14:05:13;;;;;;;2.17;0.50;;;25.70;37.80;;;;;;4973272;28;20031;-92
2023/07/27 14:07:39;;;;;;;1.67;0.52;;;25.80;37.30;;;;;;4972667;28;20034;-91
2023/07/27 14:10:06;;;;;;;1.00;0.70;;;25.90;37.90;;;;;;4974051;28;20015;-93
2023/07/27 14:12:31;;;;;;;2.25;0.50;;;26.00;36.40;;;;;;4973923;28;20144;-92
2023/07/27 14:14:57;;;;;;;3.85;0.60;;;26.10;36.80;;;;;;4973927;28;20089;-93
2023/07/27 14:17:23;;;;;;;1.50;0.60;;;26.10;36.40;;;;;;4972476;28;20070;-91
2023/07/27 14:19:48;;;;;;;0.85;0.52;;;26.10;36.80;;;;;;4973813;28;20080;-92
2023/07/27 14:22:14;;;;;;;3.88;0.47;;;26.10;36.00;;;;;;4974008;28;20109;-92
2023/07/27 14:24:40;;;;;;;1.10;0.40;;;25.90;36.00;;;;;;4973753;28;20030;-90
2023/07/27 14:27:06;;;;;;;2.03;0.50;;;25.90;36.70;;;;;;4972180;28;20070;-92
2023/07/27 14:29:31;;;;;;;1.50;0.43;;;26.00;36.70;;;;;;4972309;28;20034;-90
2023/07/27 14:31:57;;;;;;;1.30;0.43;;;26.00;36.90;;;;;;4972115;28;20023;-90
2023/07/27 14:34:23;;;;;;;1.25;0.80;;;26.10;36.30;;;;;;4972248;28;20491;-92
2023/07/27 14:36:48;;;;;;;3.13;0.93;;;26.00;36.70;;;;;;4972565;28;20035;-92
2023/07/27 14:39:14;;;;;;;1.48;0.68;;;26.00;37.20;;;;;;4973357;28;20106;-91
2023/07/27 14:41:40;;;;;;;1.33;0.70;;;25.80;37.10;;;;;;4972064;28;20113;-93
2023/07/27 14:44:05;;;;;;;1.88;0.60;;;25.50;36.90;;;;;;4973329;28;20173;-91
2023/07/27 14:46:32;;;;;;;1.42;0.60;;;25.10;37.90;;;;;;4973483;28;20035;-92
2023/07/27 14:48:59;;;;;;;1.50;0.50;;;24.70;38.30;;;;;;4973277;28;20026;-92
2023/07/27 14:51:24;;;;;;;1.65;0.60;;;24.30;39.50;;;;;;4971921;28;20027;-90
2023/07/27 14:53:50;;;;;;;4.95;0.60;;;24.20;40.30;;;;;;4971918;28;20117;-92
2023/07/27 14:56:16;;;;;;;6.57;0.60;;;24.00;40.90;;;;;;4973075;28;20031;-91
2023/07/27 14:58:42;;;;;;;0.73;0.50;;;24.00;41.60;;;;;;4973020;28;20031;-92
2023/07/27 15:01:07;;;;;;;1.35;0.77;;;24.10;40.20;;;;;;4971514;28;20467;-91
2023/07/27 15:03:33;;;;;;;1.52;0.43;;;24.20;40.80;;;;;;4971684;28;20031;-93
2023/07/27 15:06:00;;;;;;;2.47;0.60;;;24.30;39.40;;;;;;4971529;28;20085;-93
2023/07/27 15:08:26;;;;;;;1.55;0.55;;;24.40;38.10;;;;;;4971687;28;20031;-91
2023/07/27 15:10:52;;;;;;;0.82;0.45;;;24.50;37.60;;;;;;4971338;28;20483;-90
2023/07/27 15:13:18;;;;;;;5.38;0.65;;;24.60;38.50;;;;;;4972554;28;20030;-91
2023/07/27 15:15:43;;;;;;;1.20;0.50;;;24.70;38.70;;;;;;4972276;28;20045;-92
2023/07/27 15:18:09;;;;;;;1.55;0.50;;;24.70;37.80;;;;;;4972050;28;20052;-92
2023/07/27 15:20:40;;;;;;;1.60;0.55;;;24.70;36.90;;;;;;4970558;28;20495;-92
2023/07/27 15:23:06;;;;;;;1.48;0.40;;;24.70;36.40;;;;;;4971165;28;20396;-92
2023/07/27 15:25:33;;;;;;;0.90;0.45;;;24.60;36.90;;;;;;4971502;28;20090;-89
2023/07/27 15:28:04;;;;;;;1.33;0.55;;;24.50;37.50;;;;;;4971852;28;20117;-91
2023/07/27 15:30:32;;;;;;;1.55;0.55;;;24.40;37.60;;;;;;4972933;28;20050;-93
2023/07/27 15:32:59;;;;;;;1.83;0.77;;;24.20;38.20;;;;;;4971397;28;20081;-90
2023/07/27 15:35:25;;;;;;;2.00;0.50;;;24.10;38.90;;;;;;4971336;28;20463;-91
2023/07/27 15:37:51;;;;;;;4.35;0.77;;;24.10;39.60;;;;;;4972410;28;20046;-91
2023/07/27 15:40:18;;;;;;;0.93;0.50;;;24.20;38.40;;;;;;4972550;28;20061;-90
2023/07/27 15:42:43;;;;;;;5.40;0.52;;;24.20;38.20;;;;;;4972416;28;20035;-89
2023/07/27 15:45:10;;;;;;;2.63;0.57;;;24.20;38.40;;;;;;4972735;28;20031;-92
2023/07/27 15:47:35;;;;;;;0.95;0.50;;;24.10;38.70;;;;;;4971709;28;20122;-91
2023/07/27 15:50:01;;;;;;;0.80;0.50;;;23.90;38.70;;;;;;4972392;28;20687;-91
2023/07/27 15:52:27;;;;;;;1.65;0.50;;;23.80;39.00;;;;;;4972428;28;20035;-90
2023/07/27 15:54:52;;;;;;;0.88;0.50;;;23.70;39.60;;;;;;4972377;28;20031;-91
2023/07/27 15:57:18;;;;;;;2.78;0.40;;;23.80;40.10;;;;;;4972548;28;20453;-91
2023/07/27 15:59:44;;;;;;;4.30;0.40;;;23.80;40.70;;;;;;4971418;28;20043;-89
2023/07/27 16:02:10;;;;;;;1.55;0.60;;;23.80;40.10;;;;;;4972416;28;20438;-91
2023/07/27 16:04:36;;;;;;;1.05;0.50;;;23.60;40.30;;;;;;4972663;28;20018;-90
2023/07/27 16:07:02;;;;;;;5.72;0.50;;;23.50;40.80;;;;;;4972847;28;20026;-91
2023/07/27 16:09:28;;;;;;;0.73;0.40;;;23.40;40.50;;;;;;4973104;28;20026;-91
2023/07/27 16:11:53;;;;;;;1.08;0.50;;;23.40;40.80;;;;;;4973098;28;20066;-92
2023/07/27 16:14:19;;;;;;;1.00;0.60;;;23.40;41.10;;;;;;4971417;28;20027;-91
2023/07/27 16:16:45;;;;;;;0.80;0.45;;;23.40;41.30;;;;;;4969402;28;20492;-92
2023/07/27 16:19:11;;;;;;;3.03;0.57;;;23.50;40.90;;;;;;4971419;28;20107;-90
2023/07/27 16:21:37;;;;;;;1.02;0.60;;;23.60;41.10;;;;;;4972296;28;20058;-92
2023/07/27 16:24:03;;;;;;;2.80;0.57;;;23.50;40.70;;;;;;4972581;28;20514;-92
2023/07/27 16:26:29;;;;;;;0.90;0.43;;;23.60;41.00;;;;;;4972530;28;20451;-92
2023/07/27 16:28:55;;;;;;;1.20;0.50;;;23.60;41.30;;;;;;4972810;28;20019;-90
2023/07/27 16:31:21;;;;;;;0.95;0.40;;;23.60;41.30;;;;;;4973449;28;20045;-89
2023/07/27 16:45:38;;;;;;;2.05;0.57;;;23.60;39.90;;;;;;5067583;28;20409;-83
2023/07/27 16:48:04;;;;;;;1.52;0.50;;;23.70;40.40;;;;;;5066382;28;20056;-83
2023/07/27 16:50:29;;;;;;;3.25;0.80;;;23.60;41.20;;;;;;5067308;28;20044;-83
2023/07/27 16:52:55;;;;;;;3.40;0.50;;;23.40;41.60;;;;;;5066763;28;20033;-82
2023/07/27 16:55:22;;;;;;;0.73;0.40;;;23.40;42.00;;;;;;5067798;28;20037;-83
2023/07/27 16:57:47;;;;;;;2.70;0.50;;;23.30;42.20;;;;;;5066814;28;20055;-83
2023/07/27 17:00:13;;;;;;;0.98;0.45;;;23.30;42.40;;;;;;5067143;28;20033;-83
2023/07/27 17:02:40;;;;;;;1.15;0.55;;;23.20;42.40;;;;;;5067500;28;20103;-84
2023/07/27 17:05:06;;;;;;;0.85;0.50;;;23.20;42.30;;;;;;5065784;28;20576;-84
2023/07/27 17:07:32;;;;;;;1.02;0.40;;;23.10;42.70;;;;;;5066799;28;20056;-83
2023/07/27 17:09:58;;;;;;;2.92;0.65;;;23.00;43.20;;;;;;5066853;28;20039;-83
2023/07/27 17:12:27;;;;;;;3.00;0.60;;;23.00;43.30;;;;;;5065779;28;20041;-81
2023/07/27 17:14:53;;;;;;;1.10;0.60;;;22.90;43.30;;;;;;5064733;28;20094;-81
2023/07/27 17:17:19;;;;;;;0.80;0.40;;;22.90;43.50;;;;;;5065120;28;20028;-82
2023/07/27 17:19:46;;;;;;;1.85;0.45;;;22.80;43.50;;;;;;5065887;28;20021;-82
2023/07/27 17:22:12;;;;;;;4.22;0.60;;;22.80;43.60;;;;;;5066161;28;20713;-84
2023/07/27 17:24:37;;;;;;;6.82;0.70;;;22.70;43.60;;;;;;5065879;28;20117;-83
2023/07/27 17:27:03;;;;;;;1.75;0.57;;;22.70;43.80;;;;;;5066753;28;20032;-83
2023/07/27 17:29:29;;;;;;;3.60;0.70;;;22.60;44.30;;;;;;5066687;28;20108;-83
2023/07/27 17:31:55;;;;;;;1.05;0.50;;;22.50;44.70;;;;;;5066407;28;20103;-84
2023/07/27 17:34:26;;;;;;;1.00;0.40;;;22.40;44.90;;;;;;5066283;28;20029;-82
2023/07/27 17:36:53;;;;;;;1.40;0.50;;;22.40;45.10;;;;;;5063982;28;20078;-82
2023/07/27 17:39:19;;;;;;;2.33;0.70;;;22.30;45.40;;;;;;5065363;28;20459;-81
2023/07/27 17:41:45;;;;;;;1.05;0.47;;;22.20;45.90;;;;;;5065830;28;20465;-83
2023/07/27 17:44:11;;;;;;;2.90;0.60;;;22.00;46.40;;;;;;5064725;28;20049;-82
2023/07/27 17:46:37;;;;;;;1.90;0.57;;;21.90;46.90;;;;;;5051345;28;20074;-80
2023/07/27 17:49:03;;;;;;;5.18;0.47;;;21.70;47.30;;;;;;5051301;28;20455;-83
2023/07/27 17:51:31;;;;;;;1.50;0.60;;;21.70;47.90;;;;;;5052602;28;20411;-82
2023/07/27 17:53:56;;;;;;;3.60;0.60;;;21.50;48.30;;;;;;5053430;28;20029;-82
2023/07/27 17:56:22;;;;;;;1.70;0.50;;;21.50;48.80;;;;;;5054609;28;20165;-84
2023/07/27 17:58:49;;;;;;;1.63;0.60;;;21.30;49.10;;;;;;5053419;28;20033;-84
2023/07/27 18:01:15;;;;;;;1.42;0.55;;;21.30;49.50;;;;;;5053000;28;20399;-83
2023/07/27 18:03:41;;;;;;;2.35;0.57;;;21.20;49.90;;;;;;5052176;28;20120;-84
2023/07/27 18:06:08;;;;;;;0.90;0.60;;;21.00;50.20;;;;;;5051919;28;20055;-84
2023/07/27 18:08:36;;;;;;;1.23;0.60;;;21.00;50.80;;;;;;5052855;28;20048;-80
2023/07/27 18:11:09;;;;;;;1.50;0.57;;;20.80;51.50;;;;;;5052015;28;20035;-83
2023/07/27 18:13:34;;;;;;;1.70;0.40;;;20.70;52.60;;;;;;5052974;28;20029;-84
2023/07/27 18:16:06;;;;;;;1.17;0.50;;;20.60;52.10;;;;;;5050946;28;20029;-84
2023/07/27 18:18:32;;;;;;;6.90;0.65;;;20.50;53.30;;;;;;5053138;28;20025;-84
2023/07/27 18:20:58;;;;;;;1.60;0.60;;;20.30;54.20;;;;;;5053469;28;20032;-83
2023/07/27 18:23:24;;;;;;;3.85;0.85;;;20.20;55.20;;;;;;5051960;28;20045;-83
2023/07/27 18:25:50;;;;;;;6.97;0.90;;;20.00;56.10;;;;;;5054316;28;20021;-84
2023/07/27 18:28:17;;;;;;;1.45;0.82;;;19.90;56.90;;;;;;5053188;28;20032;-83
2023/07/27 18:30:43;;;;;;;2.22;0.80;;;19.80;56.90;;;;;;5051678;28;20025;-84
2023/07/27 18:33:09;;;;;;;3.17;0.85;;;19.70;57.70;;;;;;5051522;28;20405;-85
2023/07/27 18:35:35;;;;;;;1.30;0.60;;;19.70;58.90;;;;;;5053599;28;20059;-85
2023/07/27 18:38:02;;;;;;;2.45;0.90;;;19.50;60.30;;;;;;5051204;28;20552;-84
2023/07/27 18:40:27;;;;;;;3.22;0.90;;;19.40;61.20;;;;;;5051501;28;20070;-85
2023/07/27 18:42:53;;;;;;;4.32;0.60;;;19.30;62.00;;;;;;5052241;28;20029;-85
2023/07/27 18:45:19;;;;;;;1.30;0.50;;;19.20;63.40;;;;;;5052294;28;20060;-85
2023/07/27 18:47:45;;;;;;;4.35;0.90;;;19.10;64.80;;;;;;5051983;28;20550;-85
2023/07/27 18:50:11;;;;;;;2.58;0.95;;;19.00;66.20;;;;;;5053427;28;20074;-85
2023/07/27 18:52:37;;;;;;;2.83;0.63;;;18.90;67.30;;;;;;5051763;28;20028;-85
2023/07/27 18:55:05;;;;;;;3.10;0.90;;;18.80;68.20;;;;;;5052496;28;20120;-85
2023/07/27 18:57:31;;;;;;;2.00;1.00;;;18.70;70.10;;;;;;5051764;28;20476;-85